createdAt,value
2019-02-11T00:00:36.029Z,99.99
2019-02-11T00:01:35.897Z,99.99
2019-02-11T00:02:35.761Z,99.99
2019-02-11T00:03:35.625Z,99.99
2019-02-11T00:04:35.492Z,99.99
2019-02-11T00:05:35.354Z,99.99
2019-02-11T00:06:35.223Z,99.99
2019-02-11T00:07:35.085Z,99.99
2019-02-11T00:08:34.950Z,99.99
2019-02-11T00:09:34.814Z,99.99
2019-02-11T00:10:34.680Z,99.99
2019-02-11T00:11:34.544Z,99.99
2019-02-11T00:12:34.407Z,99.99
2019-02-11T00:13:34.274Z,99.99
2019-02-11T00:14:34.185Z,99.99
2019-02-11T00:15:34.003Z,99.99
2019-02-11T00:16:33.870Z,99.99
2019-02-11T00:17:33.734Z,99.99
2019-02-11T00:18:33.600Z,99.99
2019-02-11T00:19:33.464Z,99.99
2019-02-11T00:20:33.333Z,99.99
2019-02-11T00:21:33.194Z,99.99
2019-02-11T00:22:33.060Z,99.99
2019-02-11T00:23:32.923Z,99.99
2019-02-11T00:24:32.788Z,99.99
2019-02-11T00:25:32.657Z,99.99
2019-02-11T00:26:32.522Z,99.99
2019-02-11T00:27:32.389Z,99.99
2019-02-11T00:28:32.250Z,99.99
2019-02-11T00:29:32.115Z,99.99
2019-02-11T00:30:31.978Z,99.99
2019-02-11T00:31:31.845Z,99.99
2019-02-11T00:32:31.708Z,99.99
2019-02-11T00:33:31.575Z,99.99
2019-02-11T00:34:31.439Z,99.99
2019-02-11T00:35:31.304Z,99.99
2019-02-11T00:36:31.168Z,99.99
2019-02-11T00:37:31.033Z,99.99
2019-02-11T00:38:30.900Z,99.99
2019-02-11T00:39:30.797Z,99.99
2019-02-11T00:40:30.627Z,99.99
2019-02-11T00:41:30.494Z,99.99
2019-02-11T00:42:30.360Z,99.99
2019-02-11T00:43:30.222Z,99.99
2019-02-11T00:44:30.088Z,99.99
2019-02-11T00:45:29.955Z,99.99
2019-02-11T00:46:29.817Z,99.99
2019-02-11T00:47:29.683Z,99.99
2019-02-11T00:48:29.550Z,99.99
2019-02-11T00:49:29.415Z,99.99
2019-02-11T00:50:29.279Z,99.99
2019-02-11T00:51:29.143Z,99.99
2019-02-11T00:52:29.010Z,99.99
2019-02-11T00:53:28.875Z,99.99
2019-02-11T00:54:28.738Z,99.99
2019-02-11T00:55:28.605Z,99.99
2019-02-11T00:56:28.501Z,99.99
2019-02-11T00:57:28.335Z,99.99
2019-02-11T00:58:28.200Z,96.63
2019-02-11T00:59:28.068Z,97.10
2019-02-11T01:00:27.930Z,97.67
2019-02-11T01:01:27.797Z,98.61
2019-02-11T01:02:27.660Z,99.27
2019-02-11T01:03:27.527Z,98.90
2019-02-11T01:04:27.393Z,96.44
2019-02-11T01:05:27.259Z,93.70
2019-02-11T01:06:27.122Z,92.85
2019-02-11T01:07:26.989Z,91.25
2019-02-11T01:08:26.853Z,90.40
2019-02-11T01:09:26.719Z,92.76
2019-02-11T01:10:26.584Z,93.32
2019-02-11T01:11:26.468Z,94.37
2019-02-11T01:12:26.313Z,95.40
2019-02-11T01:13:27.917Z,95.68
2019-02-11T01:14:26.045Z,94.84
2019-02-11T01:15:25.911Z,95.50
2019-02-11T01:16:25.779Z,95.59
2019-02-11T01:17:25.643Z,96.25
2019-02-11T01:18:25.506Z,99.56
2019-02-11T01:19:25.374Z,99.99
2019-02-11T01:20:25.239Z,99.65
2019-02-11T01:21:25.107Z,99.99
2019-02-11T01:22:24.972Z,99.27
2019-02-11T01:23:24.836Z,99.84
2019-02-11T01:24:24.702Z,98.80
2019-02-11T01:25:24.569Z,98.80
2019-02-11T01:26:24.433Z,98.80
2019-02-11T01:27:24.298Z,99.46
2019-02-11T01:28:24.175Z,99.37
2019-02-11T01:29:24.032Z,99.56
2019-02-11T01:30:23.910Z,99.99
2019-02-11T01:31:23.762Z,99.99
2019-02-11T01:32:23.628Z,99.99
2019-02-11T01:33:23.495Z,99.99
2019-02-11T01:34:23.358Z,99.99
2019-02-11T01:35:23.226Z,99.99
2019-02-11T01:36:23.097Z,99.99
2019-02-11T01:37:22.960Z,99.99
2019-02-11T01:38:22.825Z,99.99
2019-02-11T01:39:22.690Z,99.99
2019-02-11T01:40:22.555Z,99.84
2019-02-11T01:41:22.420Z,99.99
2019-02-11T01:42:22.285Z,99.99
2019-02-11T01:43:22.153Z,98.14
2019-02-11T01:44:22.020Z,96.54
2019-02-11T01:45:21.889Z,93.51
2019-02-11T01:46:21.749Z,93.51
2019-02-11T01:47:21.615Z,93.70
2019-02-11T01:48:21.480Z,92.85
2019-02-11T01:49:21.348Z,92.29
2019-02-11T01:50:21.211Z,92.66
2019-02-11T01:51:21.079Z,94.93
2019-02-11T01:52:20.945Z,93.70
2019-02-11T01:53:20.812Z,93.13
2019-02-11T01:54:20.718Z,91.72
2019-02-11T01:55:20.539Z,90.11
2019-02-11T01:56:20.403Z,88.60
2019-02-11T01:57:20.270Z,87.66
2019-02-11T01:58:20.134Z,88.23
2019-02-11T01:59:20.001Z,88.89
2019-02-11T02:00:19.867Z,90.30
2019-02-11T02:01:19.733Z,90.30
2019-02-11T02:02:19.598Z,90.11
2019-02-11T02:03:19.463Z,89.73
2019-02-11T02:04:19.328Z,89.83
2019-02-11T02:05:19.194Z,89.92
2019-02-11T02:06:19.057Z,90.77
2019-02-11T02:07:18.923Z,90.40
2019-02-11T02:08:18.789Z,91.63
2019-02-11T02:09:18.656Z,92.00
2019-02-11T02:10:18.519Z,91.63
2019-02-11T02:11:18.386Z,92.38
2019-02-11T02:12:18.277Z,92.29
2019-02-11T02:13:18.117Z,92.38
2019-02-11T02:14:17.982Z,91.82
2019-02-11T02:15:17.849Z,91.63
2019-02-11T02:16:17.716Z,90.77
2019-02-11T02:17:17.580Z,90.21
2019-02-11T02:18:17.447Z,89.73
2019-02-11T02:19:17.313Z,91.06
2019-02-11T02:20:17.177Z,90.96
2019-02-11T02:21:17.041Z,91.34
2019-02-11T02:22:16.909Z,90.96
2019-02-11T02:23:16.772Z,92.29
2019-02-11T02:24:16.637Z,91.72
2019-02-11T02:25:16.505Z,90.02
2019-02-11T02:26:16.371Z,90.02
2019-02-11T02:27:16.232Z,88.98
2019-02-11T02:28:16.114Z,87.94
2019-02-11T02:29:15.964Z,87.75
2019-02-11T02:30:15.831Z,87.66
2019-02-11T02:31:15.695Z,86.99
2019-02-11T02:32:15.563Z,86.90
2019-02-11T02:33:15.431Z,90.40
2019-02-11T02:34:15.291Z,91.25
2019-02-11T02:35:15.158Z,91.63
2019-02-11T02:36:15.022Z,93.32
2019-02-11T02:37:14.914Z,95.12
2019-02-11T02:38:14.752Z,93.04
2019-02-11T02:39:14.619Z,91.82
2019-02-11T02:40:14.483Z,90.49
2019-02-11T02:41:14.348Z,89.36
2019-02-11T02:42:14.214Z,88.13
2019-02-11T02:43:14.078Z,87.85
2019-02-11T02:44:13.944Z,87.09
2019-02-11T02:45:13.811Z,86.71
2019-02-11T02:46:13.675Z,86.43
2019-02-11T02:47:13.537Z,86.05
2019-02-11T02:48:13.403Z,86.43
2019-02-11T02:49:13.269Z,87.18
2019-02-11T02:50:13.133Z,87.18
2019-02-11T02:51:13.012Z,88.70
2019-02-11T02:52:12.865Z,91.53
2019-02-11T02:53:12.732Z,94.27
2019-02-11T02:54:12.596Z,96.16
2019-02-11T02:55:12.464Z,97.10
2019-02-11T02:56:12.327Z,98.05
2019-02-11T02:57:12.191Z,96.35
2019-02-11T02:58:12.060Z,95.40
2019-02-11T02:59:11.925Z,94.93
2019-02-11T03:00:11.791Z,92.66
2019-02-11T03:01:11.655Z,90.11
2019-02-11T03:02:11.517Z,88.60
2019-02-11T03:03:11.391Z,87.28
2019-02-11T03:04:11.251Z,86.90
2019-02-11T03:05:11.115Z,86.43
2019-02-11T03:06:10.979Z,85.01
2019-02-11T03:07:10.847Z,84.54
2019-02-11T03:08:10.715Z,81.90
2019-02-11T03:09:10.575Z,79.91
2019-02-11T03:10:10.439Z,77.83
2019-02-11T03:11:10.305Z,76.23
2019-02-11T03:12:10.175Z,75.00
2019-02-11T03:13:10.248Z,73.96
2019-02-11T03:14:09.901Z,72.92
2019-02-11T03:15:09.766Z,72.17
2019-02-11T03:16:09.636Z,70.75
2019-02-11T03:17:09.496Z,70.28
2019-02-11T03:18:09.360Z,70.28
2019-02-11T03:19:09.229Z,69.71
2019-02-11T03:20:09.090Z,69.62
2019-02-11T03:21:08.954Z,69.52
2019-02-11T03:22:08.822Z,68.67
2019-02-11T03:23:08.685Z,68.67
2019-02-11T03:24:08.549Z,68.26
2019-02-11T03:25:08.422Z,67.63
2019-02-11T03:26:08.279Z,67.50
2019-02-11T03:27:08.147Z,67.32
2019-02-11T03:28:08.012Z,66.65
2019-02-11T03:29:07.875Z,66.65
2019-02-11T03:30:07.745Z,66.47
2019-02-11T03:31:07.608Z,66.56
2019-02-11T03:32:07.471Z,66.18
2019-02-11T03:33:07.337Z,66.37
2019-02-11T03:34:07.202Z,65.99
2019-02-11T03:35:07.065Z,65.80
2019-02-11T03:36:06.928Z,65.80
2019-02-11T03:37:06.795Z,65.90
2019-02-11T03:38:06.659Z,65.90
2019-02-11T03:39:06.529Z,65.61
2019-02-11T03:40:06.388Z,65.33
2019-02-11T03:41:06.272Z,65.23
2019-02-11T03:42:06.118Z,65.52
2019-02-11T03:43:05.986Z,65.05
2019-02-11T03:44:14.562Z,65.05
2019-02-11T03:45:05.713Z,64.86
2019-02-11T03:46:05.582Z,64.67
2019-02-11T03:47:05.445Z,64.01
2019-02-11T03:48:05.311Z,63.26
2019-02-11T03:49:05.175Z,63.16
2019-02-11T03:50:05.038Z,62.78
2019-02-11T03:51:04.901Z,62.78
2019-02-11T03:52:04.768Z,62.59
2019-02-11T03:53:04.633Z,62.69
2019-02-11T03:54:04.496Z,63.26
2019-02-11T03:55:04.363Z,63.54
2019-02-11T03:56:04.225Z,63.63
2019-02-11T03:57:04.089Z,62.69
2019-02-11T03:58:03.955Z,62.88
2019-02-11T03:59:03.819Z,62.69
2019-02-11T04:00:03.684Z,62.69
2019-02-11T04:01:03.552Z,62.69
2019-02-11T04:02:03.410Z,63.26
2019-02-11T04:03:03.275Z,62.78
2019-02-11T04:04:03.142Z,63.16
2019-02-11T04:05:03.005Z,62.69
2019-02-11T04:06:02.871Z,62.97
2019-02-11T04:07:02.734Z,63.07
2019-02-11T04:08:02.625Z,62.88
2019-02-11T04:09:02.466Z,62.59
2019-02-11T04:10:02.331Z,62.40
2019-02-11T04:11:02.192Z,62.40
2019-02-11T04:12:02.058Z,62.50
2019-02-11T04:13:01.933Z,62.31
2019-02-11T04:14:01.786Z,62.59
2019-02-11T04:15:01.654Z,62.78
2019-02-11T04:16:01.514Z,62.02
2019-02-11T04:17:01.380Z,62.50
2019-02-11T04:18:01.243Z,62.40
2019-02-11T04:19:01.110Z,62.97
2019-02-11T04:20:00.975Z,62.78
2019-02-11T04:21:00.842Z,62.69
2019-02-11T04:22:00.702Z,62.50
2019-02-11T04:23:00.567Z,62.31
2019-02-11T04:24:00.430Z,62.31
2019-02-11T04:25:00.309Z,62.40
2019-02-11T04:26:00.161Z,62.50
2019-02-11T04:27:00.026Z,62.97
2019-02-11T04:27:59.890Z,62.50
2019-02-11T04:28:59.755Z,62.59
2019-02-11T04:29:59.618Z,62.40
2019-02-11T04:30:59.486Z,62.59
2019-02-11T04:31:59.361Z,62.69
2019-02-11T04:32:59.285Z,62.69
2019-02-11T04:33:59.078Z,63.07
2019-02-11T04:34:58.945Z,63.07
2019-02-11T04:35:58.807Z,63.73
2019-02-11T04:36:58.673Z,63.26
2019-02-11T04:37:58.538Z,63.26
2019-02-11T04:38:58.403Z,63.35
2019-02-11T04:39:58.266Z,63.82
2019-02-11T04:40:58.141Z,63.73
2019-02-11T04:41:58.000Z,64.11
2019-02-11T04:42:57.858Z,63.92
2019-02-11T04:43:57.725Z,64.01
2019-02-11T04:44:57.590Z,64.01
2019-02-11T04:45:57.453Z,64.58
2019-02-11T04:46:57.320Z,64.11
2019-02-11T04:47:57.185Z,64.95
2019-02-11T04:48:57.048Z,64.58
2019-02-11T04:49:56.923Z,64.67
2019-02-11T04:50:56.778Z,64.39
2019-02-11T04:51:56.642Z,64.58
2019-02-11T04:52:56.506Z,64.76
2019-02-11T04:53:56.372Z,64.58
2019-02-11T04:54:56.236Z,64.67
2019-02-11T04:55:56.101Z,65.33
2019-02-11T04:56:55.967Z,66.09
2019-02-11T04:57:55.828Z,66.56
2019-02-11T04:58:55.694Z,66.47
2019-02-11T04:59:55.567Z,66.37
2019-02-11T05:00:55.423Z,65.71
2019-02-11T05:01:55.288Z,65.23
2019-02-11T05:02:55.157Z,65.33
2019-02-11T05:03:55.023Z,65.23
2019-02-11T05:04:54.891Z,64.86
2019-02-11T05:05:54.744Z,64.29
2019-02-11T05:06:54.611Z,64.01
2019-02-11T05:07:54.511Z,63.92
2019-02-11T05:08:54.437Z,63.26
2019-02-11T05:09:54.203Z,63.63
2019-02-11T05:10:54.072Z,63.63
2019-02-11T05:11:53.938Z,64.20
2019-02-11T05:12:53.797Z,71.66
2019-02-11T05:13:53.673Z,76.19
2019-02-11T05:14:53.527Z,78.08
2019-02-11T05:15:53.395Z,77.70
2019-02-11T05:16:53.300Z,77.13
2019-02-11T05:17:53.123Z,79.02
2019-02-11T05:18:52.988Z,81.38
2019-02-11T05:19:52.848Z,81.48
2019-02-11T05:20:52.715Z,80.82
2019-02-11T05:21:52.579Z,80.34
2019-02-11T05:22:52.442Z,79.97
2019-02-11T05:23:52.337Z,82.70
2019-02-11T05:24:52.172Z,84.59
2019-02-11T05:25:52.104Z,84.97
2019-02-11T05:26:51.907Z,85.35
2019-02-11T05:27:51.771Z,85.53
2019-02-11T05:28:51.632Z,86.19
2019-02-11T05:29:51.497Z,87.90
2019-02-11T05:30:51.362Z,93.28
2019-02-11T05:31:51.233Z,97.34
2019-02-11T05:32:51.089Z,99.99
2019-02-11T05:33:50.954Z,98.75
2019-02-11T05:34:50.816Z,98.85
2019-02-11T05:35:50.722Z,99.99
2019-02-11T05:36:50.548Z,99.99
2019-02-11T05:37:50.420Z,99.99
2019-02-11T05:38:50.276Z,99.99
2019-02-11T05:39:50.141Z,99.99
2019-02-11T05:40:50.006Z,99.99
2019-02-11T05:41:49.880Z,99.99
2019-02-11T05:42:49.735Z,99.99
2019-02-11T05:43:49.601Z,99.99
2019-02-11T05:44:54.048Z,99.99
2019-02-11T05:45:49.329Z,99.99
2019-02-11T05:46:49.197Z,99.99
2019-02-11T05:47:49.057Z,99.99
2019-02-11T05:48:48.920Z,99.99
2019-02-11T05:49:48.784Z,99.99
2019-02-11T05:50:48.649Z,99.99
2019-02-11T05:51:48.521Z,99.99
2019-02-11T05:52:48.379Z,99.99
2019-02-11T05:53:48.242Z,99.99
2019-02-11T05:54:48.109Z,99.99
2019-02-11T05:55:47.972Z,99.99
2019-02-11T05:56:47.838Z,99.99
2019-02-11T05:57:47.709Z,99.99
2019-02-11T05:58:47.564Z,99.99
2019-02-11T05:59:47.585Z,99.99
2019-02-11T06:00:47.293Z,99.99
2019-02-11T06:01:47.166Z,99.99
2019-02-11T06:02:47.022Z,97.34
2019-02-11T06:03:46.910Z,95.26
2019-02-11T06:04:46.751Z,94.13
2019-02-11T06:05:46.616Z,93.66
2019-02-11T06:06:46.486Z,93.28
2019-02-11T06:07:46.344Z,92.14
2019-02-11T06:08:46.209Z,91.58
2019-02-11T06:09:46.072Z,93.37
2019-02-11T06:10:45.939Z,95.54
2019-02-11T06:11:45.804Z,98.10
2019-02-11T06:12:45.664Z,99.99
2019-02-11T06:13:45.529Z,99.99
2019-02-11T06:14:45.397Z,99.99
2019-02-11T06:15:45.257Z,99.99
2019-02-11T06:16:45.124Z,99.99
2019-02-11T06:17:44.988Z,99.99
2019-02-11T06:18:44.852Z,99.99
2019-02-11T06:19:44.717Z,99.99
2019-02-11T06:20:44.582Z,99.99
2019-02-11T06:21:44.443Z,99.99
2019-02-11T06:22:44.310Z,99.99
2019-02-11T06:23:44.174Z,99.99
2019-02-11T06:24:44.041Z,99.99
2019-02-11T06:25:43.902Z,99.99
2019-02-11T06:26:43.766Z,99.98
2019-02-11T06:27:43.632Z,99.99
2019-02-11T06:28:43.500Z,99.99
2019-02-11T06:29:43.363Z,99.70
2019-02-11T06:30:43.226Z,99.99
2019-02-11T06:31:43.090Z,99.99
2019-02-11T06:32:42.956Z,99.99
2019-02-11T06:33:42.818Z,98.94
2019-02-11T06:34:42.684Z,97.24
2019-02-11T06:35:42.546Z,97.05
2019-02-11T06:36:42.414Z,99.99
2019-02-11T06:37:42.279Z,99.99
2019-02-11T06:38:42.140Z,99.99
2019-02-11T06:39:42.006Z,99.99
2019-02-11T06:40:41.871Z,99.99
2019-02-11T06:41:41.734Z,99.99
2019-02-11T06:42:41.598Z,99.99
2019-02-11T06:43:41.462Z,99.99
2019-02-11T06:44:41.326Z,99.99
2019-02-11T06:45:41.193Z,99.99
2019-02-11T06:46:41.056Z,99.99
2019-02-11T06:47:40.922Z,99.99
2019-02-11T06:48:40.784Z,99.99
2019-02-11T06:49:40.648Z,99.99
2019-02-11T06:50:40.513Z,96.58
2019-02-11T06:51:40.377Z,94.32
2019-02-11T06:52:40.241Z,92.71
2019-02-11T06:53:40.113Z,91.30
2019-02-11T06:54:39.970Z,90.54
2019-02-11T06:55:39.837Z,90.16
2019-02-11T06:56:39.699Z,89.59
2019-02-11T06:57:39.563Z,88.56
2019-02-11T06:58:39.427Z,87.62
2019-02-11T06:59:39.293Z,86.86
2019-02-11T07:00:39.159Z,85.44
2019-02-11T07:01:39.019Z,85.44
2019-02-11T07:02:38.885Z,85.53
2019-02-11T07:03:38.749Z,84.50
2019-02-11T07:04:38.613Z,84.03
2019-02-11T07:05:38.478Z,84.31
2019-02-11T07:06:38.342Z,83.46
2019-02-11T07:07:38.208Z,83.08
2019-02-11T07:08:38.071Z,82.99
2019-02-11T07:09:37.937Z,83.84
2019-02-11T07:10:37.801Z,83.65
2019-02-11T07:11:37.667Z,84.88
2019-02-11T07:12:37.529Z,86.19
2019-02-11T07:13:37.393Z,86.29
2019-02-11T07:14:37.256Z,86.48
2019-02-11T07:15:37.121Z,86.10
2019-02-11T07:16:36.986Z,85.82
2019-02-11T07:17:36.851Z,85.82
2019-02-11T07:18:37.194Z,89.59
2019-02-11T07:19:36.588Z,91.11
2019-02-11T07:20:36.444Z,95.54
2019-02-11T07:21:36.312Z,99.99
2019-02-11T07:22:36.174Z,99.99
2019-02-11T07:23:36.038Z,99.99
2019-02-11T07:24:35.903Z,99.99
2019-02-11T07:25:35.770Z,99.99
2019-02-11T07:26:35.634Z,99.99
2019-02-11T07:27:35.497Z,99.99
2019-02-11T07:28:35.365Z,99.99
2019-02-11T07:29:35.225Z,99.99
2019-02-11T07:30:35.090Z,99.99
2019-02-11T07:31:34.961Z,99.99
2019-02-11T07:32:34.821Z,99.99
2019-02-11T07:33:34.685Z,99.99
2019-02-11T07:34:34.551Z,99.99
2019-02-11T07:35:34.415Z,99.99
2019-02-11T07:36:34.280Z,99.99
2019-02-11T07:37:34.151Z,99.99
2019-02-11T07:38:34.017Z,99.99
2019-02-11T07:39:33.873Z,99.99
2019-02-11T07:40:33.739Z,99.99
2019-02-11T07:41:33.614Z,99.99
2019-02-11T07:42:33.466Z,99.99
2019-02-11T07:43:33.330Z,99.99
2019-02-11T07:44:33.196Z,99.99
2019-02-11T07:45:33.057Z,99.99
2019-02-11T07:46:32.923Z,99.99
2019-02-11T07:47:32.786Z,99.99
2019-02-11T07:48:32.654Z,99.99
2019-02-11T07:49:32.516Z,99.99
2019-02-11T07:50:32.379Z,99.99
2019-02-11T07:51:32.246Z,99.99
2019-02-11T07:52:32.107Z,99.99
2019-02-11T07:53:31.976Z,99.99
2019-02-11T07:54:31.843Z,99.99
2019-02-11T07:55:31.707Z,99.99
2019-02-11T07:56:31.565Z,99.99
2019-02-11T07:57:31.428Z,99.99
2019-02-11T07:58:31.296Z,99.99
2019-02-11T07:59:31.166Z,99.99
2019-02-11T08:00:31.021Z,99.99
2019-02-11T08:01:30.885Z,99.99
2019-02-11T08:02:30.748Z,99.99
2019-02-11T08:03:30.615Z,99.99
2019-02-11T08:04:30.479Z,99.99
2019-02-11T08:05:30.343Z,99.99
2019-02-11T08:06:30.205Z,99.99
2019-02-11T08:07:30.071Z,99.99
2019-02-11T08:08:29.936Z,99.99
2019-02-11T08:09:29.801Z,99.99
2019-02-11T08:10:29.662Z,99.99
2019-02-11T08:11:29.530Z,99.99
2019-02-11T08:12:29.393Z,99.99
2019-02-11T08:13:29.256Z,99.99
2019-02-11T08:14:29.134Z,99.99
2019-02-11T08:15:28.985Z,99.99
2019-02-11T08:16:28.854Z,99.99
2019-02-11T08:17:28.714Z,99.99
2019-02-11T08:18:28.576Z,99.99
2019-02-11T08:19:28.442Z,99.99
2019-02-11T08:20:28.305Z,99.99
2019-02-11T08:21:28.171Z,99.99
2019-02-11T08:22:28.037Z,99.99
2019-02-11T08:23:27.900Z,99.99
2019-02-11T08:24:27.765Z,99.99
2019-02-11T08:25:27.628Z,99.99
2019-02-11T08:26:27.493Z,99.99
2019-02-11T08:27:27.359Z,99.99
2019-02-11T08:28:27.222Z,99.99
2019-02-11T08:29:27.085Z,99.99
2019-02-11T08:30:26.950Z,99.99
2019-02-11T08:31:26.812Z,99.99
2019-02-11T08:32:26.678Z,99.99
2019-02-11T08:33:26.542Z,99.99
2019-02-11T08:34:26.408Z,99.99
2019-02-11T08:35:26.271Z,99.99
2019-02-11T08:36:26.140Z,99.99
2019-02-11T08:37:26.001Z,99.99
2019-02-11T08:38:25.866Z,99.99
2019-02-11T08:39:25.732Z,99.99
2019-02-11T08:40:25.596Z,99.99
2019-02-11T08:41:25.456Z,99.99
2019-02-11T08:42:25.331Z,99.99
2019-02-11T08:43:25.185Z,99.99
2019-02-11T08:44:25.052Z,99.99
2019-02-11T08:45:24.914Z,99.99
2019-02-11T08:46:24.781Z,99.99
2019-02-11T08:47:24.643Z,99.99
2019-02-11T08:48:24.510Z,99.99
2019-02-11T08:49:24.374Z,99.99
2019-02-11T08:50:24.240Z,99.99
2019-02-11T08:51:24.106Z,99.99
2019-02-11T08:52:24.066Z,99.99
2019-02-11T08:53:23.835Z,99.99
2019-02-11T08:54:23.701Z,99.99
2019-02-11T08:55:23.562Z,99.99
2019-02-11T08:56:23.429Z,99.99
2019-02-11T08:57:23.298Z,99.99
2019-02-11T08:58:23.157Z,99.99
2019-02-11T08:59:23.025Z,99.99
2019-02-11T09:00:22.887Z,99.99
2019-02-11T09:01:22.753Z,99.99
2019-02-11T09:02:22.617Z,99.99
2019-02-11T09:03:22.480Z,99.99
2019-02-11T09:04:22.350Z,99.99
2019-02-11T09:05:22.211Z,99.99
2019-02-11T09:06:22.082Z,99.99
2019-02-11T09:07:21.941Z,99.99
2019-02-11T09:08:21.806Z,99.99
2019-02-11T09:09:21.670Z,99.99
2019-02-11T09:10:21.534Z,99.99
2019-02-11T09:11:21.400Z,97.24
2019-02-11T09:12:21.267Z,95.26
2019-02-11T09:13:21.142Z,91.67
2019-02-11T09:14:20.995Z,92.71
2019-02-11T09:15:20.860Z,99.99
2019-02-11T09:16:20.736Z,99.99
2019-02-11T09:17:20.587Z,99.99
2019-02-11T09:18:20.860Z,99.99
2019-02-11T09:19:20.318Z,99.99
2019-02-11T09:20:20.184Z,99.99
2019-02-11T09:21:20.046Z,99.99
2019-02-11T09:22:19.910Z,99.99
2019-02-11T09:23:19.777Z,99.99
2019-02-11T09:24:19.642Z,99.99
2019-02-11T09:25:19.505Z,99.99
2019-02-11T09:26:19.372Z,99.99
2019-02-11T09:27:19.234Z,99.99
2019-02-11T09:28:19.102Z,99.99
2019-02-11T09:29:18.965Z,99.99
2019-02-11T09:30:18.828Z,99.99
2019-02-11T09:31:18.693Z,99.99
2019-02-11T09:32:18.567Z,99.99
2019-02-11T09:33:18.426Z,99.99
2019-02-11T09:34:18.287Z,99.99
2019-02-11T09:35:18.154Z,99.99
2019-02-11T09:36:18.017Z,99.99
2019-02-11T09:37:17.882Z,99.99
2019-02-11T09:38:17.746Z,99.99
2019-02-11T09:39:17.612Z,99.99
2019-02-11T09:40:17.475Z,99.99
2019-02-11T09:41:17.344Z,99.99
2019-02-11T09:42:17.208Z,99.99
2019-02-11T09:43:17.071Z,99.99
2019-02-11T09:44:16.936Z,99.99
2019-02-11T09:45:16.800Z,99.99
2019-02-11T09:46:16.666Z,99.99
2019-02-11T09:47:16.532Z,99.99
2019-02-11T09:48:16.393Z,99.99
2019-02-11T09:49:16.258Z,99.99
2019-02-11T09:50:16.126Z,99.99
2019-02-11T09:51:15.990Z,99.99
2019-02-11T09:52:15.858Z,99.99
2019-02-11T09:53:15.717Z,99.99
2019-02-11T09:54:15.583Z,99.99
2019-02-11T09:55:15.448Z,99.99
2019-02-11T09:56:15.312Z,99.99
2019-02-11T09:57:15.178Z,99.99
2019-02-11T09:58:15.046Z,99.99
2019-02-11T09:59:14.908Z,99.99
2019-02-11T10:00:14.776Z,99.99
2019-02-11T10:01:14.641Z,97.91
2019-02-11T10:02:14.506Z,95.17
2019-02-11T10:03:14.372Z,92.52
2019-02-11T10:04:14.237Z,93.09
2019-02-11T10:05:14.102Z,92.71
2019-02-11T10:06:13.966Z,88.55
2019-02-11T10:07:13.834Z,90.16
2019-02-11T10:08:13.699Z,90.25
2019-02-11T10:09:13.566Z,89.69
2019-02-11T10:10:13.429Z,90.25
2019-02-11T10:11:13.295Z,90.35
2019-02-11T10:12:21.091Z,90.35
2019-02-11T10:13:13.028Z,94.22
2019-02-11T10:14:12.894Z,92.99
2019-02-11T10:15:12.760Z,96.02
2019-02-11T10:16:12.842Z,92.43
2019-02-11T10:17:12.490Z,89.64
2019-02-11T10:18:12.357Z,88.79
2019-02-11T10:19:12.231Z,85.57
2019-02-11T10:20:12.088Z,85.85
2019-02-11T10:21:11.956Z,85.66
2019-02-11T10:22:11.826Z,83.40
2019-02-11T10:23:11.688Z,82.92
2019-02-11T10:24:11.557Z,82.64
2019-02-11T10:25:11.418Z,83.11
2019-02-11T10:26:11.286Z,83.40
2019-02-11T10:27:11.151Z,83.59
2019-02-11T10:28:11.018Z,82.83
2019-02-11T10:29:10.885Z,84.72
2019-02-11T10:30:10.751Z,85.57
2019-02-11T10:31:10.618Z,85.76
2019-02-11T10:32:10.485Z,84.63
2019-02-11T10:33:10.350Z,82.54
2019-02-11T10:34:10.217Z,81.41
2019-02-11T10:35:10.084Z,81.51
2019-02-11T10:36:09.951Z,82.83
2019-02-11T10:37:09.817Z,84.16
2019-02-11T10:38:09.682Z,83.87
2019-02-11T10:39:09.551Z,82.92
2019-02-11T10:40:09.416Z,82.17
2019-02-11T10:41:09.285Z,83.06
2019-02-11T10:42:09.148Z,81.36
2019-02-11T10:43:09.015Z,82.26
2019-02-11T10:44:08.884Z,81.51
2019-02-11T10:45:08.749Z,81.41
2019-02-11T10:46:08.616Z,82.73
2019-02-11T10:47:08.484Z,81.13
2019-02-11T10:48:08.351Z,81.70
2019-02-11T10:49:08.272Z,82.26
2019-02-11T10:50:08.084Z,83.36
2019-02-11T10:51:07.951Z,81.84
2019-02-11T10:52:07.817Z,84.86
2019-02-11T10:53:07.683Z,84.77
2019-02-11T10:54:07.549Z,85.05
2019-02-11T10:55:07.416Z,85.24
2019-02-11T10:56:07.284Z,86.29
2019-02-11T10:57:07.148Z,87.70
2019-02-11T10:58:07.069Z,86.47
2019-02-11T10:59:06.881Z,87.42
2019-02-11T11:00:06.753Z,89.03
2019-02-11T11:01:06.611Z,88.55
2019-02-11T11:02:06.478Z,87.89
2019-02-11T11:03:06.348Z,87.98
2019-02-11T11:04:06.213Z,89.40
2019-02-11T11:05:06.077Z,90.44
2019-02-11T11:06:05.955Z,90.06
2019-02-11T11:07:05.810Z,89.40
2019-02-11T11:08:05.679Z,90.25
2019-02-11T11:09:05.542Z,89.78
2019-02-11T11:10:05.415Z,88.74
2019-02-11T11:11:05.276Z,89.87
2019-02-11T11:12:05.144Z,90.54
2019-02-11T11:13:05.008Z,90.44
2019-02-11T11:14:04.895Z,88.46
2019-02-11T11:15:04.747Z,89.59
2019-02-11T11:16:04.612Z,89.87
2019-02-11T11:17:04.475Z,92.33
2019-02-11T11:18:04.341Z,89.31
2019-02-11T11:19:04.208Z,89.87
2019-02-11T11:20:04.072Z,89.97
2019-02-11T11:21:03.939Z,91.01
2019-02-11T11:22:03.806Z,91.10
2019-02-11T11:23:03.674Z,90.25
2019-02-11T11:24:03.540Z,92.52
2019-02-11T11:25:03.404Z,92.14
2019-02-11T11:26:03.272Z,92.61
2019-02-11T11:27:03.137Z,93.09
2019-02-11T11:28:03.003Z,93.75
2019-02-11T11:29:02.868Z,94.89
2019-02-11T11:30:02.733Z,95.36
2019-02-11T11:31:02.609Z,96.16
2019-02-11T11:32:02.470Z,97.06
2019-02-11T11:33:02.343Z,96.83
2019-02-11T11:34:02.199Z,95.69
2019-02-11T11:35:02.069Z,97.01
2019-02-11T11:36:01.931Z,96.07
2019-02-11T11:37:01.798Z,96.64
2019-02-11T11:38:01.664Z,95.21
2019-02-11T11:39:01.533Z,97.20
2019-02-11T11:40:01.400Z,98.90
2019-02-11T11:41:01.264Z,97.58
2019-02-11T11:42:01.129Z,98.43
2019-02-11T11:43:00.999Z,98.57
2019-02-11T11:44:00.865Z,99.99
2019-02-11T11:45:00.730Z,99.99
2019-02-11T11:46:00.598Z,99.99
2019-02-11T11:47:00.467Z,99.99
2019-02-11T11:48:00.329Z,99.99
2019-02-11T11:49:00.196Z,99.99
2019-02-11T11:50:00.143Z,99.99
2019-02-11T11:50:59.929Z,99.99
2019-02-11T11:51:59.798Z,99.99
2019-02-11T11:52:59.665Z,99.99
2019-02-11T11:53:59.571Z,99.99
2019-02-11T11:54:59.392Z,99.99
2019-02-11T11:56:02.323Z,99.99
2019-02-11T11:56:59.538Z,99.99
2019-02-11T11:57:58.992Z,99.99
2019-02-11T11:58:58.858Z,99.99
2019-02-11T11:59:58.727Z,99.99
2019-02-11T12:00:58.597Z,99.99
2019-02-11T12:01:58.570Z,99.99
2019-02-11T12:03:02.732Z,99.99
2019-02-11T12:03:58.186Z,99.99
2019-02-11T12:04:58.056Z,99.99
2019-02-11T12:05:57.920Z,99.99
2019-02-11T12:06:57.798Z,99.99
2019-02-11T12:07:57.653Z,99.99
2019-02-11T12:08:59.142Z,99.99
2019-02-11T12:09:57.396Z,99.99
2019-02-11T12:10:57.257Z,99.99
2019-02-11T12:11:57.123Z,99.99
2019-02-11T12:12:56.976Z,99.99
2019-02-11T12:13:56.844Z,99.99
2019-02-11T12:14:56.710Z,99.99
2019-02-11T12:15:56.613Z,99.99
2019-02-11T12:17:02.291Z,99.99
2019-02-11T12:17:56.315Z,99.99
2019-02-11T12:18:56.175Z,99.99
2019-02-11T12:19:56.047Z,99.99
2019-02-11T12:20:56.032Z,99.99
2019-02-11T12:21:55.778Z,99.99
2019-02-11T12:22:55.636Z,99.99
2019-02-11T12:23:55.513Z,99.99
2019-02-11T12:24:55.368Z,99.99
2019-02-11T12:25:55.242Z,99.99
2019-02-11T12:26:55.106Z,99.99
2019-02-11T12:27:54.963Z,99.99
2019-02-11T12:28:54.843Z,99.99
2019-02-11T12:29:54.711Z,99.99
2019-02-11T12:30:54.656Z,99.99
2019-02-11T12:31:54.429Z,99.99
2019-02-11T12:32:55.756Z,99.99
2019-02-11T12:33:54.155Z,99.99
2019-02-11T12:34:54.023Z,99.99
2019-02-11T12:35:53.891Z,99.99
2019-02-11T12:36:53.760Z,99.99
2019-02-11T12:37:53.657Z,99.99
2019-02-11T12:38:53.486Z,99.99
2019-02-11T12:39:53.357Z,99.99
2019-02-11T12:40:53.225Z,99.99
2019-02-11T12:41:53.084Z,99.99
2019-02-11T12:42:53.890Z,99.99
2019-02-11T12:43:52.820Z,99.99
2019-02-11T12:44:52.683Z,99.99
2019-02-11T12:45:52.554Z,99.99
2019-02-11T12:46:52.420Z,99.99
2019-02-11T12:47:52.298Z,99.99
2019-02-11T12:48:52.155Z,99.99
2019-02-11T12:49:52.034Z,99.99
2019-02-11T12:50:51.881Z,99.99